sensor_id;sensor_type;location;lat;lon;timestamp;temperature;humidity
21275;DHT22;36472;52.170;20.884;2023-11-22T00:01:38;23.70;30.30
21275;DHT22;36472;52.170;20.884;2023-11-22T00:04:07;23.40;29.80
21275;DHT22;36472;52.170;20.884;2023-11-22T00:06:37;23.60;30.00
21275;DHT22;36472;52.170;20.884;2023-11-22T00:09:07;23.50;29.90
21275;DHT22;36472;52.170;20.884;2023-11-22T00:11:37;23.50;30.00
21275;DHT22;36472;52.170;20.884;2023-11-22T00:14:06;23.40;29.80
21275;DHT22;36472;52.170;20.884;2023-11-22T00:16:35;23.40;30.00
21275;DHT22;36472;52.170;20.884;2023-11-22T00:19:07;23.50;29.90
21275;DHT22;36472;52.170;20.884;2023-11-22T00:21:36;23.30;30.00
21275;DHT22;36472;52.170;20.884;2023-11-22T00:24:08;23.40;30.10
21275;DHT22;36472;52.170;20.884;2023-11-22T00:26:37;23.40;30.20
21275;DHT22;36472;52.170;20.884;2023-11-22T00:29:06;23.40;30.70
21275;DHT22;36472;52.170;20.884;2023-11-22T00:31:35;23.20;29.80
21275;DHT22;36472;52.170;20.884;2023-11-22T00:34:05;23.30;30.00
21275;DHT22;36472;52.170;20.884;2023-11-22T00:36:34;23.00;29.70
21275;DHT22;36472;52.170;20.884;2023-11-22T00:39:03;23.20;30.00
21275;DHT22;36472;52.170;20.884;2023-11-22T00:41:33;23.20;30.10
21275;DHT22;36472;52.170;20.884;2023-11-22T00:44:03;23.20;30.00
21275;DHT22;36472;52.170;20.884;2023-11-22T00:46:33;23.20;30.00
21275;DHT22;36472;52.170;20.884;2023-11-22T00:49:03;23.40;30.20
21275;DHT22;36472;52.170;20.884;2023-11-22T00:51:33;23.40;29.90
21275;DHT22;36472;52.170;20.884;2023-11-22T00:54:03;23.50;29.90
21275;DHT22;36472;52.170;20.884;2023-11-22T00:56:33;23.20;29.70
21275;DHT22;36472;52.170;20.884;2023-11-22T00:59:18;23.40;29.90
21275;DHT22;36472;52.170;20.884;2023-11-22T01:01:48;23.00;29.60
21275;DHT22;36472;52.170;20.884;2023-11-22T01:04:17;23.20;29.80
21275;DHT22;36472;52.170;20.884;2023-11-22T01:06:46;23.30;30.00
21275;DHT22;36472;52.170;20.884;2023-11-22T01:09:15;23.40;29.90
21275;DHT22;36472;52.170;20.884;2023-11-22T01:11:45;23.40;29.80
21275;DHT22;36472;52.170;20.884;2023-11-22T01:14:14;23.50;29.60
21275;DHT22;36472;52.170;20.884;2023-11-22T01:16:44;23.10;29.20
21275;DHT22;36472;52.170;20.884;2023-11-22T01:19:13;23.30;29.70
21275;DHT22;36472;52.170;20.884;2023-11-22T01:21:42;23.30;29.80
21275;DHT22;36472;52.170;20.884;2023-11-22T01:24:11;23.20;29.60
21275;DHT22;36472;52.170;20.884;2023-11-22T01:26:40;23.10;29.60
21275;DHT22;36472;52.170;20.884;2023-11-22T01:29:10;23.00;29.50
21275;DHT22;36472;52.170;20.884;2023-11-22T01:31:40;23.10;29.60
21275;DHT22;36472;52.170;20.884;2023-11-22T01:34:11;23.00;29.50
21275;DHT22;36472;52.170;20.884;2023-11-22T01:36:42;23.00;29.60
21275;DHT22;36472;52.170;20.884;2023-11-22T01:39:12;22.70;29.50
21275;DHT22;36472;52.170;20.884;2023-11-22T01:41:44;23.10;29.90
21275;DHT22;36472;52.170;20.884;2023-11-22T01:44:15;22.90;29.90
21275;DHT22;36472;52.170;20.884;2023-11-22T01:46:45;22.80;29.50
21275;DHT22;36472;52.170;20.884;2023-11-22T01:49:16;22.90;29.70
21275;DHT22;36472;52.170;20.884;2023-11-22T01:51:46;22.90;29.40
21275;DHT22;36472;52.170;20.884;2023-11-22T01:54:17;22.80;29.40
21275;DHT22;36472;52.170;20.884;2023-11-22T01:56:48;22.80;29.50
21275;DHT22;36472;52.170;20.884;2023-11-22T01:59:20;22.80;29.40
21275;DHT22;36472;52.170;20.884;2023-11-22T02:01:50;23.00;29.50
21275;DHT22;36472;52.170;20.884;2023-11-22T02:04:19;22.90;29.70
21275;DHT22;36472;52.170;20.884;2023-11-22T02:06:48;23.20;29.40
21275;DHT22;36472;52.170;20.884;2023-11-22T02:09:19;23.30;29.60
21275;DHT22;36472;52.170;20.884;2023-11-22T02:11:49;23.30;29.20
21275;DHT22;36472;52.170;20.884;2023-11-22T02:14:19;23.40;29.20
21275;DHT22;36472;52.170;20.884;2023-11-22T02:16:49;23.40;29.30
21275;DHT22;36472;52.170;20.884;2023-11-22T02:19:18;23.50;29.00
21275;DHT22;36472;52.170;20.884;2023-11-22T02:21:47;23.40;28.90
21275;DHT22;36472;52.170;20.884;2023-11-22T02:24:18;23.30;28.90
21275;DHT22;36472;52.170;20.884;2023-11-22T02:26:47;23.50;29.00
21275;DHT22;36472;52.170;20.884;2023-11-22T02:29:16;23.50;28.80
21275;DHT22;36472;52.170;20.884;2023-11-22T02:31:45;23.60;28.70
21275;DHT22;36472;52.170;20.884;2023-11-22T02:34:15;23.50;28.70
21275;DHT22;36472;52.170;20.884;2023-11-22T02:36:44;23.50;28.30
21275;DHT22;36472;52.170;20.884;2023-11-22T02:39:32;23.50;28.50
21275;DHT22;36472;52.170;20.884;2023-11-22T02:42:10;23.60;28.60
21275;DHT22;36472;52.170;20.884;2023-11-22T02:44:39;23.70;28.90
21275;DHT22;36472;52.170;20.884;2023-11-22T02:47:08;23.70;28.90
21275;DHT22;36472;52.170;20.884;2023-11-22T02:49:38;23.70;28.50
21275;DHT22;36472;52.170;20.884;2023-11-22T02:52:07;23.70;28.50
21275;DHT22;36472;52.170;20.884;2023-11-22T02:54:41;23.70;28.50
21275;DHT22;36472;52.170;20.884;2023-11-22T02:57:11;23.70;28.70
21275;DHT22;36472;52.170;20.884;2023-11-22T02:59:41;23.50;28.20
21275;DHT22;36472;52.170;20.884;2023-11-22T03:02:10;23.50;28.50
21275;DHT22;36472;52.170;20.884;2023-11-22T03:04:39;23.50;28.50
21275;DHT22;36472;52.170;20.884;2023-11-22T03:07:08;23.60;28.70
21275;DHT22;36472;52.170;20.884;2023-11-22T03:09:39;23.40;28.10
21275;DHT22;36472;52.170;20.884;2023-11-22T03:12:08;23.50;28.50
21275;DHT22;36472;52.170;20.884;2023-11-22T03:14:37;23.50;28.30
21275;DHT22;36472;52.170;20.884;2023-11-22T03:17:08;23.40;28.40
21275;DHT22;36472;52.170;20.884;2023-11-22T03:19:38;23.30;28.40
21275;DHT22;36472;52.170;20.884;2023-11-22T03:22:07;23.20;28.30
21275;DHT22;36472;52.170;20.884;2023-11-22T03:24:36;23.30;28.70
21275;DHT22;36472;52.170;20.884;2023-11-22T03:27:07;23.20;28.60
21275;DHT22;36472;52.170;20.884;2023-11-22T03:29:38;23.10;28.90
21275;DHT22;36472;52.170;20.884;2023-11-22T03:32:07;23.20;28.80
21275;DHT22;36472;52.170;20.884;2023-11-22T03:34:36;23.10;28.40
21275;DHT22;36472;52.170;20.884;2023-11-22T03:37:05;23.00;28.70
21275;DHT22;36472;52.170;20.884;2023-11-22T03:39:35;23.20;28.90
21275;DHT22;36472;52.170;20.884;2023-11-22T03:42:04;23.20;28.70
21275;DHT22;36472;52.170;20.884;2023-11-22T03:44:35;23.10;28.80
21275;DHT22;36472;52.170;20.884;2023-11-22T03:47:05;23.00;28.30
21275;DHT22;36472;52.170;20.884;2023-11-22T03:49:34;23.20;28.60
21275;DHT22;36472;52.170;20.884;2023-11-22T03:52:03;23.20;28.60
21275;DHT22;36472;52.170;20.884;2023-11-22T03:54:33;23.20;28.80
21275;DHT22;36472;52.170;20.884;2023-11-22T03:57:03;23.30;28.80
21275;DHT22;36472;52.170;20.884;2023-11-22T03:59:35;23.30;28.70
21275;DHT22;36472;52.170;20.884;2023-11-22T04:02:05;23.10;28.20
21275;DHT22;36472;52.170;20.884;2023-11-22T04:04:35;23.00;28.30
21275;DHT22;36472;52.170;20.884;2023-11-22T04:07:06;23.20;28.70
21275;DHT22;36472;52.170;20.884;2023-11-22T04:09:36;23.00;28.20
21275;DHT22;36472;52.170;20.884;2023-11-22T04:12:05;22.90;28.00
21275;DHT22;36472;52.170;20.884;2023-11-22T04:14:36;22.90;27.90
21275;DHT22;36472;52.170;20.884;2023-11-22T04:17:05;22.90;28.30
21275;DHT22;36472;52.170;20.884;2023-11-22T04:19:34;23.00;28.50
21275;DHT22;36472;52.170;20.884;2023-11-22T04:22:04;23.00;28.00
21275;DHT22;36472;52.170;20.884;2023-11-22T04:24:33;22.90;28.20
21275;DHT22;36472;52.170;20.884;2023-11-22T04:27:02;22.90;28.20
21275;DHT22;36472;52.170;20.884;2023-11-22T04:29:31;22.80;28.00
21275;DHT22;36472;52.170;20.884;2023-11-22T04:32:01;22.80;28.20
21275;DHT22;36472;52.170;20.884;2023-11-22T04:34:31;22.70;28.00
21275;DHT22;36472;52.170;20.884;2023-11-22T04:37:00;22.30;28.00
21275;DHT22;36472;52.170;20.884;2023-11-22T04:39:29;22.20;27.80
21275;DHT22;36472;52.170;20.884;2023-11-22T04:41:58;22.30;28.20
21275;DHT22;36472;52.170;20.884;2023-11-22T04:44:27;22.40;28.10
21275;DHT22;36472;52.170;20.884;2023-11-22T04:46:55;22.40;28.20
21275;DHT22;36472;52.170;20.884;2023-11-22T04:49:28;22.50;28.20
21275;DHT22;36472;52.170;20.884;2023-11-22T04:51:59;22.60;28.20
21275;DHT22;36472;52.170;20.884;2023-11-22T04:54:29;22.60;28.00
21275;DHT22;36472;52.170;20.884;2023-11-22T04:56:59;22.60;28.20
21275;DHT22;36472;52.170;20.884;2023-11-22T04:59:28;22.50;28.00
21275;DHT22;36472;52.170;20.884;2023-11-22T05:01:57;22.60;28.00
21275;DHT22;36472;52.170;20.884;2023-11-22T05:04:27;22.60;28.30
21275;DHT22;36472;52.170;20.884;2023-11-22T05:06:56;22.60;28.00
21275;DHT22;36472;52.170;20.884;2023-11-22T05:09:26;22.60;28.20
21275;DHT22;36472;52.170;20.884;2023-11-22T05:11:55;22.70;28.20
21275;DHT22;36472;52.170;20.884;2023-11-22T05:14:24;22.70;28.20
21275;DHT22;36472;52.170;20.884;2023-11-22T05:16:54;22.70;28.10
21275;DHT22;36472;52.170;20.884;2023-11-22T05:19:24;22.70;27.80
21275;DHT22;36472;52.170;20.884;2023-11-22T05:21:54;22.70;27.80
21275;DHT22;36472;52.170;20.884;2023-11-22T05:24:23;22.60;27.70
21275;DHT22;36472;52.170;20.884;2023-11-22T05:26:52;22.60;28.00
21275;DHT22;36472;52.170;20.884;2023-11-22T05:29:21;22.50;27.80
21275;DHT22;36472;52.170;20.884;2023-11-22T05:31:52;22.60;27.80
21275;DHT22;36472;52.170;20.884;2023-11-22T05:34:21;22.50;28.00
21275;DHT22;36472;52.170;20.884;2023-11-22T05:36:50;22.60;27.80
21275;DHT22;36472;52.170;20.884;2023-11-22T05:39:21;22.50;27.90
21275;DHT22;36472;52.170;20.884;2023-11-22T05:41:51;22.50;27.90
21275;DHT22;36472;52.170;20.884;2023-11-22T05:44:21;22.50;27.70
21275;DHT22;36472;52.170;20.884;2023-11-22T05:46:49;22.50;28.00
21275;DHT22;36472;52.170;20.884;2023-11-22T05:49:19;22.40;27.60
21275;DHT22;36472;52.170;20.884;2023-11-22T05:51:48;22.40;27.70
21275;DHT22;36472;52.170;20.884;2023-11-22T05:54:17;22.20;27.60
21275;DHT22;36472;52.170;20.884;2023-11-22T05:56:47;22.20;27.70
21275;DHT22;36472;52.170;20.884;2023-11-22T05:59:16;22.20;28.20
21275;DHT22;36472;52.170;20.884;2023-11-22T06:01:45;22.10;27.90
21275;DHT22;36472;52.170;20.884;2023-11-22T06:04:14;22.00;27.70
21275;DHT22;36472;52.170;20.884;2023-11-22T06:06:43;22.20;27.90
21275;DHT22;36472;52.170;20.884;2023-11-22T06:09:12;22.20;28.40
21275;DHT22;36472;52.170;20.884;2023-11-22T06:11:42;22.20;28.30
21275;DHT22;36472;52.170;20.884;2023-11-22T06:14:13;22.20;28.20
21275;DHT22;36472;52.170;20.884;2023-11-22T06:16:42;22.20;27.90
21275;DHT22;36472;52.170;20.884;2023-11-22T06:19:11;22.20;27.80
21275;DHT22;36472;52.170;20.884;2023-11-22T06:21:39;22.30;27.90
21275;DHT22;36472;52.170;20.884;2023-11-22T06:24:08;22.20;28.00
21275;DHT22;36472;52.170;20.884;2023-11-22T06:26:43;22.20;28.10
21275;DHT22;36472;52.170;20.884;2023-11-22T06:29:15;22.30;28.00
21275;DHT22;36472;52.170;20.884;2023-11-22T06:31:44;22.30;27.60
21275;DHT22;36472;52.170;20.884;2023-11-22T06:34:13;22.30;27.70
21275;DHT22;36472;52.170;20.884;2023-11-22T06:36:42;22.30;27.80
21275;DHT22;36472;52.170;20.884;2023-11-22T06:39:11;22.30;28.10
21275;DHT22;36472;52.170;20.884;2023-11-22T06:41:41;22.30;28.20
21275;DHT22;36472;52.170;20.884;2023-11-22T06:44:10;22.30;28.10
21275;DHT22;36472;52.170;20.884;2023-11-22T06:46:41;22.40;28.10
21275;DHT22;36472;52.170;20.884;2023-11-22T06:49:11;22.30;27.80
21275;DHT22;36472;52.170;20.884;2023-11-22T06:51:40;22.40;28.20
21275;DHT22;36472;52.170;20.884;2023-11-22T06:54:09;22.40;28.00
21275;DHT22;36472;52.170;20.884;2023-11-22T06:56:38;22.50;27.80
21275;DHT22;36472;52.170;20.884;2023-11-22T06:59:07;22.50;28.00
21275;DHT22;36472;52.170;20.884;2023-11-22T07:01:36;22.50;27.80
21275;DHT22;36472;52.170;20.884;2023-11-22T07:04:08;22.50;28.00
21275;DHT22;36472;52.170;20.884;2023-11-22T07:06:38;22.50;28.10
21275;DHT22;36472;52.170;20.884;2023-11-22T07:09:07;22.60;27.90
21275;DHT22;36472;52.170;20.884;2023-11-22T07:11:38;22.70;27.80
21275;DHT22;36472;52.170;20.884;2023-11-22T07:14:07;22.70;28.20
21275;DHT22;36472;52.170;20.884;2023-11-22T07:16:36;22.70;28.00
21275;DHT22;36472;52.170;20.884;2023-11-22T07:19:05;22.80;27.80
21275;DHT22;36472;52.170;20.884;2023-11-22T07:21:35;22.80;27.90
21275;DHT22;36472;52.170;20.884;2023-11-22T07:24:06;22.80;27.90
21275;DHT22;36472;52.170;20.884;2023-11-22T07:26:36;22.80;27.90
21275;DHT22;36472;52.170;20.884;2023-11-22T07:29:05;22.90;27.60
21275;DHT22;36472;52.170;20.884;2023-11-22T07:31:34;22.90;28.00
21275;DHT22;36472;52.170;20.884;2023-11-22T07:34:04;23.00;27.60
21275;DHT22;36472;52.170;20.884;2023-11-22T07:36:35;23.00;27.60
21275;DHT22;36472;52.170;20.884;2023-11-22T07:39:05;23.00;27.50
21275;DHT22;36472;52.170;20.884;2023-11-22T07:41:34;23.00;27.80
21275;DHT22;36472;52.170;20.884;2023-11-22T07:44:04;23.00;27.40
21275;DHT22;36472;52.170;20.884;2023-11-22T07:46:33;23.10;27.30
21275;DHT22;36472;52.170;20.884;2023-11-22T07:49:05;23.10;27.40
21275;DHT22;36472;52.170;20.884;2023-11-22T07:51:35;23.10;27.20
21275;DHT22;36472;52.170;20.884;2023-11-22T07:54:05;23.20;26.70
21275;DHT22;36472;52.170;20.884;2023-11-22T07:56:34;23.10;26.70
21275;DHT22;36472;52.170;20.884;2023-11-22T07:59:04;23.20;26.90
21275;DHT22;36472;52.170;20.884;2023-11-22T08:01:33;23.30;27.20
21275;DHT22;36472;52.170;20.884;2023-11-22T08:04:02;23.20;26.90
21275;DHT22;36472;52.170;20.884;2023-11-22T08:06:32;23.10;26.50
21275;DHT22;36472;52.170;20.884;2023-11-22T08:09:04;23.20;26.40
21275;DHT22;36472;52.170;20.884;2023-11-22T08:11:36;23.30;26.50
21275;DHT22;36472;52.170;20.884;2023-11-22T08:14:05;23.30;26.30
21275;DHT22;36472;52.170;20.884;2023-11-22T08:16:35;23.40;26.40
21275;DHT22;36472;52.170;20.884;2023-11-22T08:19:06;23.40;26.50
21275;DHT22;36472;52.170;20.884;2023-11-22T08:21:35;23.50;26.40
21275;DHT22;36472;52.170;20.884;2023-11-22T08:24:07;23.50;26.50
21275;DHT22;36472;52.170;20.884;2023-11-22T08:26:36;23.60;26.10
21275;DHT22;36472;52.170;20.884;2023-11-22T08:29:05;23.60;26.20
21275;DHT22;36472;52.170;20.884;2023-11-22T08:31:35;23.60;26.60
21275;DHT22;36472;52.170;20.884;2023-11-22T08:34:04;23.70;26.70
21275;DHT22;36472;52.170;20.884;2023-11-22T08:36:34;23.80;26.40
21275;DHT22;36472;52.170;20.884;2023-11-22T08:39:03;23.80;26.50
21275;DHT22;36472;52.170;20.884;2023-11-22T08:41:34;23.80;25.90
21275;DHT22;36472;52.170;20.884;2023-11-22T08:44:03;23.90;26.20
21275;DHT22;36472;52.170;20.884;2023-11-22T08:46:34;23.90;26.20
21275;DHT22;36472;52.170;20.884;2023-11-22T08:49:03;23.90;26.20
21275;DHT22;36472;52.170;20.884;2023-11-22T08:51:33;23.80;25.50
21275;DHT22;36472;52.170;20.884;2023-11-22T08:54:03;23.90;25.50
21275;DHT22;36472;52.170;20.884;2023-11-22T08:56:32;24.00;26.00
21275;DHT22;36472;52.170;20.884;2023-11-22T08:59:02;24.00;26.10
21275;DHT22;36472;52.170;20.884;2023-11-22T09:01:32;24.00;25.80
21275;DHT22;36472;52.170;20.884;2023-11-22T09:04:02;24.10;26.10
21275;DHT22;36472;52.170;20.884;2023-11-22T09:06:31;23.80;25.50
21275;DHT22;36472;52.170;20.884;2023-11-22T09:09:02;23.80;25.70
21275;DHT22;36472;52.170;20.884;2023-11-22T09:11:31;23.80;25.60
21275;DHT22;36472;52.170;20.884;2023-11-22T09:14:03;23.90;25.60
21275;DHT22;36472;52.170;20.884;2023-11-22T09:16:35;23.90;26.00
21275;DHT22;36472;52.170;20.884;2023-11-22T09:19:05;24.00;25.60
21275;DHT22;36472;52.170;20.884;2023-11-22T09:21:34;24.00;25.70
21275;DHT22;36472;52.170;20.884;2023-11-22T09:24:04;24.00;25.70
21275;DHT22;36472;52.170;20.884;2023-11-22T09:26:34;24.10;25.70
21275;DHT22;36472;52.170;20.884;2023-11-22T09:29:04;24.10;25.70
21275;DHT22;36472;52.170;20.884;2023-11-22T09:31:34;24.10;25.30
21275;DHT22;36472;52.170;20.884;2023-11-22T09:34:04;24.20;25.80
21275;DHT22;36472;52.170;20.884;2023-11-22T09:36:33;24.20;25.50
21275;DHT22;36472;52.170;20.884;2023-11-22T09:39:02;24.20;25.00
21275;DHT22;36472;52.170;20.884;2023-11-22T09:41:35;24.30;25.30
21275;DHT22;36472;52.170;20.884;2023-11-22T09:44:06;24.20;25.60
21275;DHT22;36472;52.170;20.884;2023-11-22T09:46:38;24.30;25.60
21275;DHT22;36472;52.170;20.884;2023-11-22T09:49:14;24.10;25.40
21275;DHT22;36472;52.170;20.884;2023-11-22T09:51:51;24.20;25.60
21275;DHT22;36472;52.170;20.884;2023-11-22T09:54:24;24.20;25.30
21275;DHT22;36472;52.170;20.884;2023-11-22T09:56:59;24.30;25.80
21275;DHT22;36472;52.170;20.884;2023-11-22T09:59:32;24.30;25.50
21275;DHT22;36472;52.170;20.884;2023-11-22T10:02:01;24.30;25.50
21275;DHT22;36472;52.170;20.884;2023-11-22T10:04:31;24.30;25.60
21275;DHT22;36472;52.170;20.884;2023-11-22T10:07:02;24.30;25.30
21275;DHT22;36472;52.170;20.884;2023-11-22T10:09:31;24.30;25.50
21275;DHT22;36472;52.170;20.884;2023-11-22T10:12:01;24.30;25.60
21275;DHT22;36472;52.170;20.884;2023-11-22T10:14:33;24.30;25.40
21275;DHT22;36472;52.170;20.884;2023-11-22T10:17:02;24.30;25.60
21275;DHT22;36472;52.170;20.884;2023-11-22T10:19:33;24.40;25.90
21275;DHT22;36472;52.170;20.884;2023-11-22T10:22:03;24.50;25.60
21275;DHT22;36472;52.170;20.884;2023-11-22T10:24:35;24.20;25.60
21275;DHT22;36472;52.170;20.884;2023-11-22T10:27:04;24.30;25.70
21275;DHT22;36472;52.170;20.884;2023-11-22T10:29:35;24.40;25.80
21275;DHT22;36472;52.170;20.884;2023-11-22T10:32:05;24.40;26.00
21275;DHT22;36472;52.170;20.884;2023-11-22T10:34:35;24.30;25.80
21275;DHT22;36472;52.170;20.884;2023-11-22T10:37:04;24.40;25.60
21275;DHT22;36472;52.170;20.884;2023-11-22T10:39:33;24.50;25.70
21275;DHT22;36472;52.170;20.884;2023-11-22T10:42:05;24.50;25.80
21275;DHT22;36472;52.170;20.884;2023-11-22T10:44:38;24.60;25.90
21275;DHT22;36472;52.170;20.884;2023-11-22T10:47:09;24.70;25.60
21275;DHT22;36472;52.170;20.884;2023-11-22T10:49:41;24.60;25.30
21275;DHT22;36472;52.170;20.884;2023-11-22T10:52:30;24.60;25.80
21275;DHT22;36472;52.170;20.884;2023-11-22T10:57:56;24.70;25.50
21275;DHT22;36472;52.170;20.884;2023-11-22T11:00:32;24.80;25.80
21275;DHT22;36472;52.170;20.884;2023-11-22T11:03:07;24.70;25.30
21275;DHT22;36472;52.170;20.884;2023-11-22T11:05:43;24.70;25.60
21275;DHT22;36472;52.170;20.884;2023-11-22T11:08:18;24.70;25.50
21275;DHT22;36472;52.170;20.884;2023-11-22T11:10:48;24.70;25.40
21275;DHT22;36472;52.170;20.884;2023-11-22T11:13:18;24.70;25.70
21275;DHT22;36472;52.170;20.884;2023-11-22T11:15:48;24.70;25.80
21275;DHT22;36472;52.170;20.884;2023-11-22T11:18:18;24.70;25.70
21275;DHT22;36472;52.170;20.884;2023-11-22T11:20:49;24.50;25.50
21275;DHT22;36472;52.170;20.884;2023-11-22T11:23:20;24.60;25.50
21275;DHT22;36472;52.170;20.884;2023-11-22T11:25:54;24.60;25.80
21275;DHT22;36472;52.170;20.884;2023-11-22T11:28:25;24.70;25.80
21275;DHT22;36472;52.170;20.884;2023-11-22T11:30:56;24.60;25.50
21275;DHT22;36472;52.170;20.884;2023-11-22T11:33:27;24.70;25.40
21275;DHT22;36472;52.170;20.884;2023-11-22T11:36:03;24.70;25.70
21275;DHT22;36472;52.170;20.884;2023-11-22T11:38:35;24.70;25.60
21275;DHT22;36472;52.170;20.884;2023-11-22T11:41:09;24.80;26.10
21275;DHT22;36472;52.170;20.884;2023-11-22T11:43:40;24.80;25.90
21275;DHT22;36472;52.170;20.884;2023-11-22T11:46:11;24.80;25.70
21275;DHT22;36472;52.170;20.884;2023-11-22T11:48:44;24.60;24.90
21275;DHT22;36472;52.170;20.884;2023-11-22T11:51:14;24.70;25.80
21275;DHT22;36472;52.170;20.884;2023-11-22T11:53:45;24.70;25.30
21275;DHT22;36472;52.170;20.884;2023-11-22T11:56:14;24.50;25.10
21275;DHT22;36472;52.170;20.884;2023-11-22T11:58:46;24.50;25.10
21275;DHT22;36472;52.170;20.884;2023-11-22T12:01:18;24.50;25.10
21275;DHT22;36472;52.170;20.884;2023-11-22T12:03:49;24.50;25.30
21275;DHT22;36472;52.170;20.884;2023-11-22T12:06:20;24.50;25.70
21275;DHT22;36472;52.170;20.884;2023-11-22T12:08:49;24.50;25.30
21275;DHT22;36472;52.170;20.884;2023-11-22T12:11:18;24.60;25.90
21275;DHT22;36472;52.170;20.884;2023-11-22T12:13:47;24.70;25.60
21275;DHT22;36472;52.170;20.884;2023-11-22T12:16:19;24.70;25.70
21275;DHT22;36472;52.170;20.884;2023-11-22T12:18:49;24.70;25.60
21275;DHT22;36472;52.170;20.884;2023-11-22T12:21:19;24.70;25.90
21275;DHT22;36472;52.170;20.884;2023-11-22T12:23:48;24.80;26.10
21275;DHT22;36472;52.170;20.884;2023-11-22T12:26:20;24.80;25.70
21275;DHT22;36472;52.170;20.884;2023-11-22T12:28:49;24.80;26.20
21275;DHT22;36472;52.170;20.884;2023-11-22T12:31:33;24.80;26.00
21275;DHT22;36472;52.170;20.884;2023-11-22T12:34:04;24.80;25.80
21275;DHT22;36472;52.170;20.884;2023-11-22T12:36:34;24.80;25.80
21275;DHT22;36472;52.170;20.884;2023-11-22T12:39:07;24.80;25.90
21275;DHT22;36472;52.170;20.884;2023-11-22T12:41:44;24.90;25.70
21275;DHT22;36472;52.170;20.884;2023-11-22T12:44:25;24.90;26.20
21275;DHT22;36472;52.170;20.884;2023-11-22T12:47:00;24.90;26.00
21275;DHT22;36472;52.170;20.884;2023-11-22T12:49:43;24.90;26.20
21275;DHT22;36472;52.170;20.884;2023-11-22T12:52:13;24.80;25.80
21275;DHT22;36472;52.170;20.884;2023-11-22T12:54:42;24.80;25.50
21275;DHT22;36472;52.170;20.884;2023-11-22T12:57:15;24.70;25.70
21275;DHT22;36472;52.170;20.884;2023-11-22T12:59:48;24.80;26.00
21275;DHT22;36472;52.170;20.884;2023-11-22T13:02:19;24.70;25.40
21275;DHT22;36472;52.170;20.884;2023-11-22T13:04:48;24.60;25.40
21275;DHT22;36472;52.170;20.884;2023-11-22T13:07:17;24.60;25.30
21275;DHT22;36472;52.170;20.884;2023-11-22T13:09:47;24.60;25.70
21275;DHT22;36472;52.170;20.884;2023-11-22T13:12:16;24.50;25.50
21275;DHT22;36472;52.170;20.884;2023-11-22T13:14:47;24.60;25.70
21275;DHT22;36472;52.170;20.884;2023-11-22T13:17:19;24.60;25.60
21275;DHT22;36472;52.170;20.884;2023-11-22T13:19:49;24.70;25.80
21275;DHT22;36472;52.170;20.884;2023-11-22T13:22:17;24.70;26.00
21275;DHT22;36472;52.170;20.884;2023-11-22T13:24:47;24.70;25.90
21275;DHT22;36472;52.170;20.884;2023-11-22T13:27:16;24.80;26.20
21275;DHT22;36472;52.170;20.884;2023-11-22T13:29:45;24.80;26.30
21275;DHT22;36472;52.170;20.884;2023-11-22T13:32:14;24.90;26.10
21275;DHT22;36472;52.170;20.884;2023-11-22T13:34:45;24.80;26.00
21275;DHT22;36472;52.170;20.884;2023-11-22T13:37:14;24.70;26.20
21275;DHT22;36472;52.170;20.884;2023-11-22T13:39:44;24.70;26.80
21275;DHT22;36472;52.170;20.884;2023-11-22T13:42:12;24.60;26.20
21275;DHT22;36472;52.170;20.884;2023-11-22T13:44:42;24.70;26.40
21275;DHT22;36472;52.170;20.884;2023-11-22T13:47:11;24.70;26.40
21275;DHT22;36472;52.170;20.884;2023-11-22T13:49:41;24.60;26.40
21275;DHT22;36472;52.170;20.884;2023-11-22T13:52:12;24.60;26.50
21275;DHT22;36472;52.170;20.884;2023-11-22T13:54:41;24.60;26.50
21275;DHT22;36472;52.170;20.884;2023-11-22T13:57:10;24.60;26.60
21275;DHT22;36472;52.170;20.884;2023-11-22T13:59:39;24.60;26.90
21275;DHT22;36472;52.170;20.884;2023-11-22T14:02:08;24.60;26.70
21275;DHT22;36472;52.170;20.884;2023-11-22T14:04:37;24.50;26.60
21275;DHT22;36472;52.170;20.884;2023-11-22T14:07:07;24.50;26.60
21275;DHT22;36472;52.170;20.884;2023-11-22T14:09:37;24.50;26.70
21275;DHT22;36472;52.170;20.884;2023-11-22T14:12:06;24.40;26.80
21275;DHT22;36472;52.170;20.884;2023-11-22T14:14:35;24.40;26.70
21275;DHT22;36472;52.170;20.884;2023-11-22T14:17:05;24.40;26.80
21275;DHT22;36472;52.170;20.884;2023-11-22T14:19:35;24.40;26.90
21275;DHT22;36472;52.170;20.884;2023-11-22T14:22:09;24.40;26.80
21275;DHT22;36472;52.170;20.884;2023-11-22T14:24:40;24.30;27.00
21275;DHT22;36472;52.170;20.884;2023-11-22T14:27:08;24.40;26.80
21275;DHT22;36472;52.170;20.884;2023-11-22T14:29:38;24.40;27.10
21275;DHT22;36472;52.170;20.884;2023-11-22T14:32:08;24.40;26.80
21275;DHT22;36472;52.170;20.884;2023-11-22T14:34:37;24.40;27.10
21275;DHT22;36472;52.170;20.884;2023-11-22T14:37:07;24.40;26.90
21275;DHT22;36472;52.170;20.884;2023-11-22T14:39:36;24.40;26.90
21275;DHT22;36472;52.170;20.884;2023-11-22T14:42:07;24.40;27.00
21275;DHT22;36472;52.170;20.884;2023-11-22T14:44:36;24.40;27.10
21275;DHT22;36472;52.170;20.884;2023-11-22T14:47:05;24.50;27.30
21275;DHT22;36472;52.170;20.884;2023-11-22T14:49:42;24.50;27.00
21275;DHT22;36472;52.170;20.884;2023-11-22T14:52:13;24.50;27.40
21275;DHT22;36472;52.170;20.884;2023-11-22T14:54:44;24.40;27.40
21275;DHT22;36472;52.170;20.884;2023-11-22T14:57:14;24.50;27.50
21275;DHT22;36472;52.170;20.884;2023-11-22T14:59:45;24.50;27.40
21275;DHT22;36472;52.170;20.884;2023-11-22T15:02:14;24.40;27.20
21275;DHT22;36472;52.170;20.884;2023-11-22T15:04:43;24.40;27.70
21275;DHT22;36472;52.170;20.884;2023-11-22T15:07:13;24.40;27.50
21275;DHT22;36472;52.170;20.884;2023-11-22T15:09:42;24.40;28.00
21275;DHT22;36472;52.170;20.884;2023-11-22T15:12:14;24.40;28.10
21275;DHT22;36472;52.170;20.884;2023-11-22T15:14:43;24.30;28.00
21275;DHT22;36472;52.170;20.884;2023-11-22T15:17:13;24.30;27.80
21275;DHT22;36472;52.170;20.884;2023-11-22T15:19:44;24.30;27.90
21275;DHT22;36472;52.170;20.884;2023-11-22T15:22:13;24.30;27.80
21275;DHT22;36472;52.170;20.884;2023-11-22T15:24:42;24.10;27.70
21275;DHT22;36472;52.170;20.884;2023-11-22T15:27:13;24.10;28.10
21275;DHT22;36472;52.170;20.884;2023-11-22T15:29:42;24.10;28.30
21275;DHT22;36472;52.170;20.884;2023-11-22T15:32:11;24.10;28.20
21275;DHT22;36472;52.170;20.884;2023-11-22T15:34:41;24.10;28.00
21275;DHT22;36472;52.170;20.884;2023-11-22T15:37:13;24.10;28.20